Terminal Aerodrome Forecast
Issued by NWS

Home | Current Version | Previous Version | Text Only | Print | Product List | Glossary Off
Versions: 1 2 3 4 5 6 7 8 9 10 11 12 13 14

143
FTUS43 KFGF 291122
TAFBJI
TAF
KBJI 291122Z 2912/3012 30006KT P6SM OVC005
      TEMPO 2912/2913 -RA
     FM291400 30008KT P6SM BKN008
     FM291600 29009KT P6SM BKN015
     FM291800 29010KT P6SM BKN035
     FM292200 29011KT P6SM SCT060=

USA.gov is the U.S. government's official web portal to all federal, state and local government web resources and services.